KBXA/BXA METAR and TAF weather

Enter ICAO airport designator
Station Type Date Time Source
KBXA METAR 2020/01/18 21:35 UTC NOAA

KBXA 182135Z AUTO 24005KT 10SM CLR 25/18 A3010 RMK AO2 T02470180


Station Type Date Time Source
KBXA Decoded METAR 2020/01/18 21:35 UTC NOAA

Bogalusa, George R Carr Memorial Air Field, LA, United States (KBXA) 30-48-49N 089-51-53W
Jan 18, 2020 - 04:35 PM EST / 2020.01.18 2135 UTC
Wind: from the WSW (240 degrees) at 6 MPH (5 KT):0
Visibility: 10 mile(s):0
Sky conditions: clear
Temperature: 76.5 F (24.7 C)
Dew Point: 64.4 F (18.0 C)
Relative Humidity: 66%
Pressure (altimeter): 30.1 in. Hg (1019 hPa)
ob: KBXA 182135Z AUTO 24005KT 10SM CLR 25/18 A3010 RMK AO2 T02470180
cycle: 21

Station Type Date Time Source
KBXA TAF UTC NOAA

Error!

Example: see airport list